首页
METAR-TAF:

METAR-TAF

机场 :

哥伦布, 密西西比州, 美国

纬度: 33-39N, 经度: 088-27W, 海拔: 67米

当前天气观测

该预报发布于21分钟前的11:56 UTC
风速5节,风向西转西北
温度 0°C
湿度 74%
气压 1026 hPa
能見度: 16.1公里
天空无云

METAR: KCBM 271156Z AUTO 30005KT 10SM R31C/4500FT CLR 00/M04 A3030 RMK AO2 SLP265 60000 70001 T10051042 10043 21010 52008

时间: 06:17 (12:17 UTC)

预报

该预报发布于3小时和17分钟前的09:00 UTC
预报有效从27日的 09点(UTC)到 28日的 15点(UTC)
风速8节,风向西北
能见度10公里或以上
天空无云
成为
从 27日的 15点(UTC)到 27日的 16点(UTC)
风速5节,风向西
能见度10公里或以上
天空无云
成为
从 28日的 05点(UTC)到 28日的 06点(UTC)
风速5节,风向西转西南
能见度10公里或以上
多云层高于10000英尺
成为
从 28日的 09点(UTC)到 28日的 10点(UTC)
风速8节,风向西
能见度10公里或以上
多云层高于6500英尺
多云层高于10000英尺
成为
从 28日的 13点(UTC)到 28日的 14点(UTC)
风速10节,风向西转西北,有时为15节阵风
能见度10公里或以上
多云层高于5000英尺

TAF: KCBM 270900Z 2709/2815 32008KT 9999 SKC QNH3020INS BECMG 2715/2716 28005KT 9999 SKC QNH3025INS BECMG 2805/2806 24005KT 9999 BKN100 QNH3015INS BECMG 2809/2810 27008KT 9999 BKN065 BKN100 QNH3015INS BECMG 2813/2814 29010G15KT 9999 BKN050 QNH3015INS TX08/2720Z TN00/2710Z

超过4000个机场的气象观测和天气预报(METAR&TAF报告)。

可查询的气象台以黄色和红色小点在地图上表示。

将鼠标移到小点上方,可查看气象台名称。

然后点击查看天气观测和预报。

如需切换地图:点击带黑十字的绿色按钮放大地图;点击带横线的绿色按钮缩小地图;或者点击绿色箭头查看邻近地区的地图。


METAR-TAF: